Time;durP1;ratioP1;P1;durP2;ratioP2;P2;SDS_P1;SDS_P2;PMS_P1;PMS_P2;Temp;Humidity;BMP_temperature;BMP_pressure;BME280_temperature;BME280_humidity;BME280_pressure;Samples;Min_cycle;Max_cycle;Signal;HPM_P1;HPM_P2
2022/03/10 00:01:19;;;;;;;17.15;11.10;;;6.50;96.70;;;;;;4991107;28;20060;-86
2022/03/10 00:03:48;;;;;;;14.57;10.93;;;6.50;96.70;;;;;;5014102;28;20058;-87
2022/03/10 00:06:16;;;;;;;17.00;10.98;;;6.40;96.70;;;;;;5008279;28;20046;-87
2022/03/10 00:08:44;;;;;;;16.00;10.70;;;6.40;96.70;;;;;;5011191;28;20046;-87
2022/03/10 00:11:12;;;;;;;15.00;11.05;;;6.40;96.70;;;;;;4990047;28;20069;-87
2022/03/10 00:13:40;;;;;;;16.60;11.65;;;6.50;96.70;;;;;;5020917;28;20057;-87
2022/03/10 00:16:09;;;;;;;15.48;9.98;;;6.50;96.70;;;;;;5007065;28;20050;-88
2022/03/10 00:18:39;;;;;;;17.63;10.68;;;6.40;96.70;;;;;;4989402;28;20046;-86
2022/03/10 00:21:07;;;;;;;17.58;11.85;;;6.30;96.70;;;;;;4973056;28;20048;-88
2022/03/10 00:23:35;;;;;;;17.02;10.27;;;6.20;96.70;;;;;;4975299;28;20047;-87
2022/03/10 00:26:03;;;;;;;16.02;10.57;;;6.10;96.70;;;;;;4975040;28;20141;-87
2022/03/10 00:28:33;;;;;;;17.92;11.02;;;6.00;96.70;;;;;;4991679;28;20057;-86
2022/03/10 00:31:01;;;;;;;15.07;10.90;;;6.00;96.70;;;;;;5009173;28;20487;-87
2022/03/10 00:33:29;;;;;;;17.60;11.38;;;6.00;96.70;;;;;;5010172;28;20101;-87
2022/03/10 00:35:58;;;;;;;16.92;10.85;;;5.90;96.70;;;;;;4973284;28;20614;-87
2022/03/10 00:38:27;;;;;;;16.70;11.00;;;6.00;96.70;;;;;;4992125;28;20046;-86
2022/03/10 00:40:55;;;;;;;18.38;11.52;;;6.00;96.70;;;;;;4991124;28;20052;-86
2022/03/10 00:43:23;;;;;;;17.13;11.60;;;6.00;96.70;;;;;;4975233;28;20053;-87
2022/03/10 00:45:50;;;;;;;15.43;10.30;;;6.10;96.70;;;;;;4992880;28;20047;-88
2022/03/10 00:48:20;;;;;;;18.30;11.18;;;6.10;96.70;;;;;;4993048;28;20077;-87
2022/03/10 00:50:48;;;;;;;20.50;11.52;;;6.10;96.70;;;;;;5006599;28;20117;-87
2022/03/10 00:53:17;;;;;;;18.70;11.73;;;6.00;96.70;;;;;;4997247;28;20050;-87
2022/03/10 00:55:45;;;;;;;16.23;10.80;;;6.00;96.70;;;;;;4991759;28;20109;-87
2022/03/10 00:58:13;;;;;;;16.33;10.73;;;6.10;96.70;;;;;;5000786;28;20069;-87
2022/03/10 01:00:41;;;;;;;16.42;10.27;;;6.00;96.70;;;;;;4989995;28;20041;-87
2022/03/10 01:03:10;;;;;;;14.45;9.95;;;5.90;96.70;;;;;;4988081;28;20057;-87
2022/03/10 01:05:38;;;;;;;14.55;9.65;;;5.90;96.70;;;;;;4973520;28;20050;-87
2022/03/10 01:08:06;;;;;;;15.23;9.88;;;5.90;96.70;;;;;;4979276;28;20549;-87
2022/03/10 01:10:37;;;;;;;14.27;9.48;;;5.70;96.70;;;;;;4986159;28;20030;-87
2022/03/10 01:13:12;;;;;;;14.43;9.57;;;5.60;96.70;;;;;;4978245;28;20054;-87
2022/03/10 01:15:41;;;;;;;15.52;10.20;;;5.60;96.70;;;;;;5002516;28;20415;-86
2022/03/10 01:18:09;;;;;;;14.57;9.52;;;5.60;96.70;;;;;;4989241;28;20235;-86
2022/03/10 01:20:38;;;;;;;13.27;8.95;;;5.50;96.70;;;;;;4972141;28;20052;-86
2022/03/10 01:23:06;;;;;;;15.02;9.95;;;5.50;96.70;;;;;;4989642;28;20053;-86
2022/03/10 01:25:33;;;;;;;12.75;8.85;;;5.40;96.70;;;;;;4989673;28;20077;-87
2022/03/10 01:28:05;;;;;;;21.88;11.57;;;5.30;96.70;;;;;;4994651;28;20046;-84
2022/03/10 01:30:33;;;;;;;13.88;8.82;;;5.30;96.70;;;;;;5026988;28;20084;-85
2022/03/10 01:33:01;;;;;;;11.45;8.50;;;5.40;96.70;;;;;;4972054;28;20161;-85
2022/03/10 01:35:32;;;;;;;14.38;9.40;;;5.30;96.70;;;;;;5018994;28;20073;-84
2022/03/10 01:38:01;;;;;;;11.63;8.45;;;5.30;96.70;;;;;;4989761;28;20050;-85
2022/03/10 01:40:29;;;;;;;13.70;9.10;;;5.30;96.70;;;;;;4994601;28;20057;-84
2022/03/10 01:42:57;;;;;;;13.45;9.45;;;5.30;96.70;;;;;;4971046;28;20042;-85
2022/03/10 01:45:28;;;;;;;15.32;10.15;;;5.30;96.70;;;;;;4964062;28;20417;-85
2022/03/10 01:47:56;;;;;;;16.83;11.27;;;5.30;96.70;;;;;;5009465;28;20073;-84
2022/03/10 01:50:24;;;;;;;14.30;10.00;;;5.30;96.70;;;;;;5007008;28;20054;-85
2022/03/10 01:52:52;;;;;;;17.33;11.77;;;5.20;96.70;;;;;;4990790;28;20507;-85
2022/03/10 01:55:20;;;;;;;18.52;10.85;;;5.30;96.70;;;;;;5007166;28;20520;-85
2022/03/10 01:57:49;;;;;;;15.65;11.25;;;5.40;96.70;;;;;;4971951;28;20062;-85
2022/03/10 02:00:17;;;;;;;15.35;10.15;;;5.40;96.70;;;;;;4976059;28;20512;-84
2022/03/10 02:02:49;;;;;;;16.08;9.50;;;5.30;96.70;;;;;;4972353;28;20094;-85
2022/03/10 02:05:18;;;;;;;15.85;10.43;;;5.20;96.70;;;;;;5009121;28;20508;-85
2022/03/10 02:10:35;;;;;;;16.95;9.50;;;5.30;96.70;;;;;;4988091;28;20046;-85
2022/03/10 02:13:03;;;;;;;15.45;10.20;;;5.30;96.70;;;;;;5002924;28;20073;-84
2022/03/10 02:18:21;;;;;;;15.35;10.02;;;5.30;96.70;;;;;;5002899;28;20651;-85
2022/03/10 02:20:49;;;;;;;17.08;9.77;;;5.40;96.70;;;;;;4981745;28;20050;-84
2022/03/10 02:23:19;;;;;;;15.98;10.40;;;5.30;96.70;;;;;;5003096;28;20065;-85
2022/03/10 02:25:47;;;;;;;14.98;10.35;;;5.30;96.70;;;;;;4976024;28;20105;-85
2022/03/10 02:28:18;;;;;;;14.30;9.80;;;5.20;96.70;;;;;;4987214;28;20705;-85
2022/03/10 02:30:46;;;;;;;17.67;10.77;;;5.10;96.70;;;;;;4971127;28;20046;-85
2022/03/10 02:33:16;;;;;;;14.15;10.20;;;5.20;96.70;;;;;;4988326;28;20514;-84
2022/03/10 02:35:44;;;;;;;17.23;9.68;;;5.00;96.70;;;;;;4987592;28;20567;-84
2022/03/10 02:38:17;;;;;;;13.95;10.00;;;5.10;96.70;;;;;;4973499;28;20050;-85
2022/03/10 02:40:48;;;;;;;15.75;9.57;;;4.90;96.70;;;;;;5003464;28;20050;-84
2022/03/10 02:43:18;;;;;;;17.90;10.05;;;4.90;96.70;;;;;;5003078;28;20100;-84
2022/03/10 02:45:47;;;;;;;14.85;10.38;;;4.90;96.70;;;;;;5014387;28;20842;-84
2022/03/10 02:48:16;;;;;;;15.70;9.93;;;4.90;96.70;;;;;;4986448;28;20038;-85
2022/03/10 02:50:45;;;;;;;13.32;9.20;;;4.90;96.70;;;;;;4978429;28;20070;-84
2022/03/10 02:53:15;;;;;;;15.55;10.23;;;5.00;96.70;;;;;;4989721;28;20043;-85
2022/03/10 02:55:50;;;;;;;15.85;10.52;;;4.80;96.70;;;;;;4972887;28;20042;-84
2022/03/10 02:58:19;;;;;;;19.30;9.88;;;4.80;96.70;;;;;;5007257;28;20049;-86
2022/03/10 03:00:48;;;;;;;15.95;9.63;;;4.80;96.70;;;;;;5002639;28;20142;-86
2022/03/10 03:03:17;;;;;;;14.73;10.00;;;4.80;96.70;;;;;;4987345;28;20050;-86
2022/03/10 03:05:45;;;;;;;14.98;9.68;;;4.80;96.70;;;;;;4970577;28;20758;-85
2022/03/10 03:08:13;;;;;;;14.75;10.00;;;4.80;96.70;;;;;;5005580;28;20042;-86
2022/03/10 03:10:43;;;;;;;17.70;10.00;;;4.80;96.70;;;;;;4991127;28;20089;-86
2022/03/10 03:13:12;;;;;;;15.23;9.60;;;4.70;96.70;;;;;;4994056;28;20048;-86
2022/03/10 03:15:40;;;;;;;16.15;10.02;;;4.60;96.70;;;;;;4990035;28;20136;-86
2022/03/10 03:18:09;;;;;;;16.27;10.32;;;4.60;96.70;;;;;;4974831;28;20046;-86
2022/03/10 03:20:37;;;;;;;15.30;10.02;;;4.60;96.70;;;;;;4979419;28;20053;-85
2022/03/10 03:23:05;;;;;;;13.85;9.05;;;4.60;96.70;;;;;;4974796;28;20334;-85
2022/03/10 03:25:33;;;;;;;15.55;9.45;;;4.60;96.70;;;;;;5007271;28;20058;-86
2022/03/10 03:28:01;;;;;;;16.17;9.82;;;4.50;96.70;;;;;;4991464;28;20073;-86
2022/03/10 03:30:31;;;;;;;14.15;9.50;;;4.50;96.70;;;;;;4978514;28;20129;-85
2022/03/10 03:32:59;;;;;;;14.10;9.88;;;4.50;96.70;;;;;;5006368;28;20504;-86
2022/03/10 03:35:27;;;;;;;13.30;9.25;;;4.50;96.70;;;;;;4982369;28;20082;-86
2022/03/10 03:37:55;;;;;;;16.33;10.05;;;4.50;96.70;;;;;;5022945;28;20050;-86
2022/03/10 03:40:24;;;;;;;20.08;9.75;;;4.50;96.70;;;;;;5019438;28;20069;-85
2022/03/10 03:42:52;;;;;;;15.00;8.98;;;4.50;96.70;;;;;;4989843;28;20059;-86
2022/03/10 03:45:21;;;;;;;14.00;9.25;;;4.30;96.70;;;;;;4986055;28;20078;-86
2022/03/10 03:47:51;;;;;;;15.40;9.80;;;4.30;96.70;;;;;;5014134;28;20097;-86
2022/03/10 03:50:19;;;;;;;14.00;9.75;;;4.40;96.70;;;;;;4980773;28;20137;-86
2022/03/10 03:52:47;;;;;;;14.75;9.48;;;4.50;96.70;;;;;;4973824;28;20046;-86
2022/03/10 03:55:16;;;;;;;15.50;9.70;;;4.50;96.70;;;;;;4996264;28;20069;-86
2022/03/10 03:57:44;;;;;;;13.52;9.00;;;4.40;96.70;;;;;;4973293;28;20046;-86
2022/03/10 04:00:15;;;;;;;15.27;9.73;;;4.20;96.70;;;;;;4989757;28;20043;-85
2022/03/10 04:02:44;;;;;;;16.35;9.32;;;4.20;96.70;;;;;;4998423;28;20105;-86
2022/03/10 04:05:16;;;;;;;14.65;9.70;;;4.10;96.70;;;;;;5007527;28;20050;-86
2022/03/10 04:07:44;;;;;;;17.25;10.20;;;4.20;96.70;;;;;;5001147;28;20066;-86
2022/03/10 04:10:16;;;;;;;16.50;10.23;;;4.30;96.70;;;;;;4994822;28;20046;-86
2022/03/10 04:12:45;;;;;;;13.80;9.75;;;4.30;96.70;;;;;;4989997;28;20049;-86
2022/03/10 04:15:13;;;;;;;13.95;9.88;;;4.30;96.70;;;;;;5009231;28;20052;-86
2022/03/10 04:17:42;;;;;;;18.98;11.63;;;4.40;96.70;;;;;;4971970;28;20051;-85
2022/03/10 04:20:13;;;;;;;22.38;12.82;;;4.20;96.70;;;;;;5012569;28;20046;-86
2022/03/10 04:22:43;;;;;;;17.55;11.15;;;4.20;96.70;;;;;;5008500;28;21357;-86
2022/03/10 04:25:11;;;;;;;16.27;10.88;;;4.20;96.70;;;;;;5010006;28;20073;-86
2022/03/10 04:27:40;;;;;;;18.67;12.00;;;4.20;96.70;;;;;;4973499;28;20050;-86
2022/03/10 04:30:09;;;;;;;18.52;12.05;;;4.20;96.70;;;;;;4976438;28;20061;-87
2022/03/10 04:32:42;;;;;;;15.52;10.00;;;4.20;96.70;;;;;;5005099;28;20038;-86
2022/03/10 04:35:12;;;;;;;16.55;10.63;;;4.20;96.70;;;;;;5009447;28;20059;-86
2022/03/10 04:37:40;;;;;;;15.10;9.88;;;4.10;96.70;;;;;;4972606;28;20866;-85
2022/03/10 04:40:11;;;;;;;15.70;9.77;;;4.10;96.70;;;;;;4999894;28;20524;-86
2022/03/10 04:42:39;;;;;;;16.00;8.82;;;4.00;96.70;;;;;;4984858;28;20046;-87
2022/03/10 04:45:09;;;;;;;16.63;9.95;;;4.00;96.70;;;;;;5012257;28;20057;-86
2022/03/10 04:47:37;;;;;;;14.50;9.70;;;4.00;96.70;;;;;;5004370;28;20563;-86
2022/03/10 04:50:06;;;;;;;16.73;9.60;;;3.90;96.70;;;;;;4986091;28;20116;-86
2022/03/10 04:52:35;;;;;;;15.23;9.48;;;3.90;96.70;;;;;;4973475;28;20054;-85
2022/03/10 04:55:04;;;;;;;14.52;8.95;;;3.90;96.70;;;;;;4990110;28;20074;-85
2022/03/10 04:57:34;;;;;;;12.68;8.70;;;3.90;96.70;;;;;;4990362;28;20227;-85
2022/03/10 05:00:08;;;;;;;14.20;8.73;;;3.90;96.70;;;;;;4989781;28;20065;-85
2022/03/10 05:02:36;;;;;;;12.95;9.05;;;3.80;96.70;;;;;;4972186;28;20054;-85
2022/03/10 05:05:06;;;;;;;14.82;9.48;;;3.90;96.70;;;;;;4988739;28;20058;-85
2022/03/10 05:07:35;;;;;;;15.20;9.35;;;3.90;96.70;;;;;;4990160;28;20047;-85
2022/03/10 05:10:04;;;;;;;14.68;9.68;;;3.80;96.70;;;;;;4988271;28;20058;-85
2022/03/10 05:12:43;;;;;;;12.40;9.02;;;3.80;96.70;;;;;;4986632;28;20078;-86
2022/03/10 05:15:11;;;;;;;13.73;9.13;;;3.70;96.70;;;;;;5000650;28;20078;-86
2022/03/10 05:17:39;;;;;;;14.40;9.20;;;3.70;96.70;;;;;;4972171;28;20093;-86
2022/03/10 05:20:09;;;;;;;15.63;9.68;;;3.70;96.70;;;;;;5004838;28;20141;-85
2022/03/10 05:22:48;;;;;;;13.98;9.07;;;3.50;96.70;;;;;;5024007;28;20050;-86
2022/03/10 05:25:18;;;;;;;16.17;10.05;;;3.40;96.70;;;;;;4988063;28;20050;-85
2022/03/10 05:27:48;;;;;;;14.43;9.45;;;3.30;96.70;;;;;;4987823;28;20066;-85
2022/03/10 05:30:17;;;;;;;13.68;8.75;;;3.40;96.70;;;;;;5004430;28;20053;-85
2022/03/10 05:32:46;;;;;;;17.05;10.15;;;3.50;96.70;;;;;;4972354;28;20085;-86
2022/03/10 05:35:15;;;;;;;13.82;9.45;;;3.50;96.70;;;;;;4978101;28;20062;-87
2022/03/10 05:37:44;;;;;;;17.58;9.90;;;3.50;96.70;;;;;;4989377;28;20038;-86
2022/03/10 05:40:15;;;;;;;13.15;8.85;;;3.50;96.70;;;;;;4973256;28;20062;-86
2022/03/10 05:42:44;;;;;;;16.13;10.18;;;3.60;96.70;;;;;;4977607;28;20046;-86
2022/03/10 05:45:20;;;;;;;16.55;9.45;;;3.50;96.70;;;;;;4975733;28;20108;-87
2022/03/10 05:47:48;;;;;;;16.10;10.15;;;3.50;96.70;;;;;;4992232;28;20093;-87
2022/03/10 05:50:17;;;;;;;16.45;9.73;;;3.50;96.70;;;;;;4974753;28;20042;-87
2022/03/10 05:52:46;;;;;;;17.50;8.85;;;3.50;96.70;;;;;;5009240;28;20050;-87
2022/03/10 05:55:15;;;;;;;15.82;9.40;;;3.50;96.70;;;;;;4976340;28;20042;-86
2022/03/10 05:57:46;;;;;;;14.70;9.60;;;3.50;96.70;;;;;;4972115;28;20389;-85
2022/03/10 06:00:17;;;;;;;15.05;9.27;;;3.60;96.70;;;;;;5003544;28;20108;-85
2022/03/10 06:02:51;;;;;;;15.15;9.48;;;3.50;96.70;;;;;;4990238;28;20053;-86
2022/03/10 06:05:21;;;;;;;15.52;10.30;;;3.60;96.70;;;;;;4970296;28;20054;-82
2022/03/10 06:07:50;;;;;;;15.30;9.30;;;3.60;96.70;;;;;;4986861;28;20354;-82
2022/03/10 06:10:18;;;;;;;16.55;9.82;;;3.70;96.70;;;;;;4976909;28;20081;-82
2022/03/10 06:12:46;;;;;;;16.60;9.40;;;3.70;96.70;;;;;;4971804;28;20038;-82
2022/03/10 06:15:16;;;;;;;16.27;9.80;;;3.60;96.70;;;;;;4978582;28;20820;-83
2022/03/10 06:17:44;;;;;;;17.02;10.20;;;3.50;96.70;;;;;;4995386;28;20054;-82
2022/03/10 06:20:12;;;;;;;15.48;9.35;;;3.50;96.70;;;;;;4983049;28;20050;-83
2022/03/10 06:22:40;;;;;;;13.90;9.23;;;3.60;96.70;;;;;;4971190;28;20136;-82
2022/03/10 06:25:09;;;;;;;13.93;9.88;;;3.60;96.70;;;;;;5020527;28;20568;-82
2022/03/10 06:27:38;;;;;;;16.30;10.27;;;3.50;96.70;;;;;;4985534;28;20037;-82
2022/03/10 06:30:07;;;;;;;15.80;9.65;;;3.70;96.70;;;;;;5000838;28;20050;-82
2022/03/10 06:32:39;;;;;;;16.40;9.75;;;3.70;96.70;;;;;;4986964;28;20053;-83
2022/03/10 06:35:09;;;;;;;17.63;10.30;;;3.80;96.70;;;;;;4990147;28;20058;-83
2022/03/10 06:37:43;;;;;;;17.20;10.65;;;3.80;96.70;;;;;;5028489;28;20081;-83
2022/03/10 06:40:13;;;;;;;17.20;10.75;;;3.80;96.70;;;;;;5002844;28;20038;-82
2022/03/10 06:42:41;;;;;;;19.27;11.13;;;3.90;96.70;;;;;;5004654;28;20058;-83
2022/03/10 06:45:10;;;;;;;16.85;10.60;;;4.00;96.70;;;;;;4974324;28;20114;-83
2022/03/10 06:47:40;;;;;;;16.92;10.85;;;3.90;96.70;;;;;;4992379;28;20045;-83
2022/03/10 06:50:09;;;;;;;17.38;10.73;;;4.00;96.70;;;;;;4993095;28;20062;-82
2022/03/10 06:52:38;;;;;;;20.55;12.02;;;4.10;96.70;;;;;;4984207;28;20120;-84
2022/03/10 06:55:20;;;;;;;20.48;12.35;;;4.10;96.70;;;;;;4992299;28;20077;-82
2022/03/10 06:57:59;;;;;;;22.88;12.05;;;4.20;96.70;;;;;;5007685;28;20956;-81
2022/03/10 07:00:27;;;;;;;23.15;12.25;;;4.20;96.70;;;;;;5011418;28;20054;-82
2022/03/10 07:02:57;;;;;;;31.73;12.43;;;4.30;96.70;;;;;;4974584;28;20298;-83
2022/03/10 07:05:26;;;;;;;25.25;12.93;;;4.40;96.70;;;;;;4989833;28;20133;-83
2022/03/10 07:07:54;;;;;;;22.95;12.82;;;4.40;96.70;;;;;;4973824;28;20435;-82
2022/03/10 07:10:26;;;;;;;21.85;11.93;;;4.50;96.70;;;;;;5009972;28;20046;-80
2022/03/10 07:12:56;;;;;;;21.00;12.65;;;4.50;96.70;;;;;;5006548;28;20046;-82
2022/03/10 07:15:25;;;;;;;21.02;12.50;;;4.60;96.70;;;;;;4973293;28;20046;-83
2022/03/10 07:17:53;;;;;;;21.23;12.02;;;4.70;96.70;;;;;;4992615;28;20042;-83
2022/03/10 07:20:23;;;;;;;20.33;12.27;;;4.90;96.70;;;;;;4990055;28;20059;-82
2022/03/10 07:22:54;;;;;;;20.58;12.02;;;4.90;96.70;;;;;;5007698;28;20551;-80
2022/03/10 07:25:22;;;;;;;20.08;10.73;;;4.80;96.70;;;;;;4979284;28;20042;-79
2022/03/10 07:27:51;;;;;;;20.25;11.50;;;4.80;96.70;;;;;;4983531;28;20696;-80
2022/03/10 07:30:20;;;;;;;24.92;13.50;;;4.90;96.70;;;;;;4982989;28;20571;-81
2022/03/10 07:32:48;;;;;;;25.92;14.75;;;4.90;96.70;;;;;;4989235;28;20097;-82
2022/03/10 07:35:16;;;;;;;27.00;15.63;;;4.90;96.70;;;;;;4999407;28;20055;-81
2022/03/10 07:37:48;;;;;;;33.45;20.52;;;4.90;96.70;;;;;;4968789;28;20039;-82
2022/03/10 07:40:16;;;;;;;50.08;32.10;;;5.10;96.70;;;;;;4966182;28;20118;-82
2022/03/10 07:42:44;;;;;;;64.93;39.85;;;5.10;96.70;;;;;;4969371;28;20066;-80
2022/03/10 07:45:13;;;;;;;48.53;31.30;;;5.10;96.70;;;;;;4966147;28;20050;-83
2022/03/10 07:47:46;;;;;;;45.75;28.70;;;5.20;96.70;;;;;;4997104;28;20057;-81
2022/03/10 07:50:14;;;;;;;41.30;26.13;;;5.20;96.70;;;;;;4969044;28;20043;-82
2022/03/10 07:52:43;;;;;;;38.58;26.08;;;5.30;96.70;;;;;;4966648;28;20047;-83
2022/03/10 07:55:13;;;;;;;47.05;28.70;;;5.30;96.70;;;;;;4963897;28;20058;-82
2022/03/10 07:57:42;;;;;;;46.13;29.42;;;5.30;96.70;;;;;;4970711;28;20166;-81
2022/03/10 08:00:11;;;;;;;36.60;23.30;;;5.30;96.70;;;;;;4978019;28;20049;-82
2022/03/10 08:02:39;;;;;;;35.70;22.35;;;5.40;96.70;;;;;;4999187;28;20057;-82
2022/03/10 08:05:09;;;;;;;29.75;19.60;;;5.50;96.70;;;;;;4984994;28;20101;-81
2022/03/10 08:07:37;;;;;;;27.70;18.58;;;5.60;96.70;;;;;;4985145;28;20672;-82
2022/03/10 08:10:09;;;;;;;24.20;16.60;;;5.70;96.70;;;;;;5023673;28;20398;-82
2022/03/10 08:12:39;;;;;;;26.48;16.65;;;5.80;96.70;;;;;;4984764;28;20509;-81
2022/03/10 08:15:10;;;;;;;23.60;15.15;;;5.80;96.70;;;;;;4984025;28;20093;-82
2022/03/10 08:17:39;;;;;;;22.13;13.50;;;5.90;96.70;;;;;;4981080;28;20047;-82
2022/03/10 08:20:08;;;;;;;19.58;13.30;;;6.00;96.70;;;;;;4985209;28;20149;-82
2022/03/10 08:22:36;;;;;;;28.55;18.08;;;6.10;96.70;;;;;;4968589;28;20046;-82
2022/03/10 08:25:05;;;;;;;33.35;20.85;;;6.20;96.70;;;;;;4972321;28;20043;-82
2022/03/10 08:27:33;;;;;;;36.53;22.73;;;6.20;96.70;;;;;;4968658;28;20050;-82
2022/03/10 08:30:04;;;;;;;42.25;23.98;;;6.30;96.70;;;;;;4998926;28;20061;-82
2022/03/10 08:32:32;;;;;;;34.08;22.77;;;6.40;96.70;;;;;;4985007;28;20086;-82
2022/03/10 08:35:01;;;;;;;24.45;15.30;;;6.50;96.70;;;;;;4981442;28;20058;-82
2022/03/10 08:37:29;;;;;;;21.60;14.95;;;6.70;96.70;;;;;;4968033;28;20133;-78
2022/03/10 08:39:58;;;;;;;21.30;13.48;;;6.80;96.70;;;;;;4989172;28;20065;-82
2022/03/10 08:42:26;;;;;;;20.30;13.50;;;6.90;96.70;;;;;;4983557;28;20062;-82
2022/03/10 08:44:55;;;;;;;21.00;14.55;;;7.00;96.70;;;;;;4972668;28;20125;-82
2022/03/10 08:47:26;;;;;;;22.75;15.70;;;7.00;96.70;;;;;;4967431;28;20119;-82
2022/03/10 08:49:54;;;;;;;21.45;15.20;;;7.10;96.70;;;;;;4983361;28;20054;-82
2022/03/10 08:52:22;;;;;;;22.63;14.52;;;7.20;96.70;;;;;;4984505;28;20046;-82
2022/03/10 08:54:51;;;;;;;21.67;14.52;;;7.30;96.70;;;;;;4984633;28;20536;-82
2022/03/10 08:57:21;;;;;;;24.23;16.70;;;7.40;96.70;;;;;;4999430;28;20071;-81
2022/03/10 08:59:50;;;;;;;23.00;15.65;;;7.50;96.70;;;;;;4964448;28;20046;-81
2022/03/10 09:02:19;;;;;;;20.58;15.13;;;7.60;96.70;;;;;;4969306;28;20059;-82
2022/03/10 09:04:52;;;;;;;21.88;15.55;;;7.70;96.70;;;;;;4981923;28;20054;-81
2022/03/10 09:07:20;;;;;;;21.55;15.57;;;7.70;96.70;;;;;;4979194;28;20053;-81
2022/03/10 09:09:48;;;;;;;21.00;15.05;;;7.80;96.70;;;;;;4979868;28;20570;-80
2022/03/10 09:12:17;;;;;;;20.98;14.20;;;7.90;96.70;;;;;;4970653;28;20038;-80
2022/03/10 09:14:45;;;;;;;20.80;14.23;;;8.10;96.70;;;;;;4966725;28;20130;-83
2022/03/10 09:17:17;;;;;;;21.60;14.60;;;8.10;96.70;;;;;;5002882;28;20146;-82
2022/03/10 09:19:46;;;;;;;22.15;15.75;;;8.20;96.70;;;;;;4989180;28;20047;-82
2022/03/10 09:22:16;;;;;;;22.63;15.57;;;8.30;96.70;;;;;;4969344;28;20058;-81
2022/03/10 09:24:45;;;;;;;20.58;15.38;;;8.30;96.70;;;;;;4969028;28;20338;-80
2022/03/10 09:27:13;;;;;;;25.67;15.73;;;8.50;96.70;;;;;;4987588;28;20059;-82
2022/03/10 09:29:41;;;;;;;22.20;14.63;;;8.50;96.70;;;;;;4966869;28;20145;-82
2022/03/10 09:32:10;;;;;;;23.13;15.60;;;8.60;96.70;;;;;;4983908;28;20412;-82
2022/03/10 09:34:38;;;;;;;22.70;15.00;;;8.70;96.70;;;;;;4975655;28;20516;-82
2022/03/10 09:37:07;;;;;;;21.17;14.63;;;8.90;96.70;;;;;;4972163;28;20074;-82
2022/03/10 09:39:36;;;;;;;24.30;16.05;;;8.90;96.70;;;;;;4994816;28;20048;-82
2022/03/10 09:42:06;;;;;;;23.80;16.20;;;9.00;96.70;;;;;;4989184;28;20065;-82
2022/03/10 09:44:36;;;;;;;24.02;15.93;;;9.20;96.70;;;;;;5003491;28;20084;-82
2022/03/10 09:47:08;;;;;;;22.58;15.88;;;9.30;96.70;;;;;;4963658;28;20050;-83
2022/03/10 09:49:36;;;;;;;24.98;15.32;;;9.30;96.70;;;;;;4997735;28;20769;-82
2022/03/10 09:52:08;;;;;;;23.90;15.55;;;9.50;96.70;;;;;;4981009;28;20092;-83
2022/03/10 09:54:40;;;;;;;22.20;15.55;;;9.50;96.70;;;;;;4987534;28;20096;-83
2022/03/10 09:57:09;;;;;;;22.88;15.90;;;9.60;96.70;;;;;;5012467;28;20141;-83
2022/03/10 09:59:48;;;;;;;19.67;14.07;;;9.70;96.70;;;;;;4988661;28;20151;-83
2022/03/10 10:02:17;;;;;;;26.65;16.48;;;9.80;96.70;;;;;;4988272;28;20314;-82
2022/03/10 10:04:48;;;;;;;21.65;15.13;;;9.90;96.70;;;;;;4988679;28;20460;-82
2022/03/10 10:07:21;;;;;;;20.15;15.30;;;10.00;96.70;;;;;;4987211;28;20054;-83
2022/03/10 10:09:54;;;;;;;20.38;14.98;;;10.10;96.70;;;;;;4972147;28;20046;-82
2022/03/10 10:12:28;;;;;;;19.75;15.13;;;10.30;96.70;;;;;;5003317;28;20559;-82
2022/03/10 10:14:57;;;;;;;22.02;15.75;;;10.50;96.70;;;;;;5002827;28;20052;-83
2022/03/10 10:17:28;;;;;;;18.02;13.88;;;10.80;96.70;;;;;;5002864;28;20366;-83
2022/03/10 10:20:16;;;;;;;19.98;14.65;;;11.00;96.70;;;;;;4988242;28;20043;-83
2022/03/10 10:22:51;;;;;;;19.65;13.65;;;11.10;96.70;;;;;;4988798;28;20058;-83
2022/03/10 10:25:23;;;;;;;17.50;13.13;;;11.00;96.70;;;;;;5010615;28;20061;-84
2022/03/10 10:27:52;;;;;;;21.63;14.25;;;10.90;96.70;;;;;;4986130;28;20054;-84
2022/03/10 10:30:20;;;;;;;19.08;13.95;;;11.10;96.70;;;;;;4973754;28;20048;-84
2022/03/10 10:33:04;;;;;;;21.08;15.20;;;11.20;96.70;;;;;;4989275;28;20093;-83
2022/03/10 10:35:33;;;;;;;19.02;14.00;;;11.30;96.70;;;;;;4965314;28;20090;-84
2022/03/10 10:38:02;;;;;;;20.25;13.90;;;11.40;96.70;;;;;;4971074;28;20122;-83
2022/03/10 10:40:33;;;;;;;18.20;13.05;;;11.50;96.70;;;;;;5008563;28;20123;-84
2022/03/10 10:43:03;;;;;;;19.42;14.60;;;11.50;96.70;;;;;;4989320;28;20062;-83
2022/03/10 10:45:33;;;;;;;18.42;13.55;;;11.60;96.70;;;;;;4969528;28;20031;-84
2022/03/10 10:48:04;;;;;;;19.25;13.68;;;11.60;96.70;;;;;;4967685;28;20047;-86
2022/03/10 10:50:33;;;;;;;22.77;14.50;;;11.90;96.70;;;;;;4968869;28;20054;-85
2022/03/10 10:53:02;;;;;;;19.60;13.55;;;12.00;96.70;;;;;;4998821;28;20121;-83
2022/03/10 10:55:34;;;;;;;16.63;13.15;;;12.10;96.70;;;;;;4983088;28;20290;-85
2022/03/10 10:58:10;;;;;;;20.70;13.73;;;12.10;96.70;;;;;;4983314;28;20051;-83
2022/03/10 11:00:42;;;;;;;19.33;12.98;;;12.10;96.70;;;;;;4983125;28;20482;-85
2022/03/10 11:03:21;;;;;;;18.92;13.85;;;12.20;96.70;;;;;;4979940;28;20068;-84
2022/03/10 11:05:51;;;;;;;20.33;14.20;;;12.50;96.70;;;;;;4999201;28;20085;-85
2022/03/10 11:08:20;;;;;;;20.88;14.60;;;12.60;96.70;;;;;;4999952;28;20089;-85
2022/03/10 11:10:50;;;;;;;18.27;13.68;;;12.60;96.70;;;;;;4966057;28;20065;-85
2022/03/10 11:13:22;;;;;;;22.02;13.45;;;12.80;96.70;;;;;;5008360;28;20058;-85
2022/03/10 11:15:53;;;;;;;21.38;13.93;;;12.90;96.70;;;;;;5002912;28;20053;-84
2022/03/10 11:18:23;;;;;;;22.15;12.65;;;12.80;96.70;;;;;;4984187;28;20058;-85
2022/03/10 11:21:05;;;;;;;27.02;13.07;;;12.70;96.70;;;;;;4983080;28;20130;-81
2022/03/10 11:23:45;;;;;;;16.40;10.55;;;13.00;96.70;;;;;;5002309;28;20051;-85
2022/03/10 11:26:22;;;;;;;17.08;11.30;;;13.20;96.70;;;;;;4979909;28;20050;-84
2022/03/10 11:28:53;;;;;;;17.20;12.30;;;13.20;96.70;;;;;;4969834;28;20141;-83
2022/03/10 11:31:23;;;;;;;19.83;12.20;;;13.40;96.70;;;;;;4972649;28;20071;-80
2022/03/10 11:33:51;;;;;;;19.75;11.95;;;13.60;96.70;;;;;;4986768;28;20664;-86
2022/03/10 11:36:22;;;;;;;16.15;11.02;;;13.80;96.70;;;;;;4979539;28;20156;-87
2022/03/10 11:38:53;;;;;;;18.30;12.55;;;13.90;96.70;;;;;;4989127;28;20057;-80
2022/03/10 11:41:26;;;;;;;16.75;12.00;;;13.90;96.70;;;;;;4971230;28;20077;-82
2022/03/10 11:43:59;;;;;;;14.73;11.10;;;14.00;96.70;;;;;;4987084;28;20035;-83
2022/03/10 11:46:28;;;;;;;15.30;11.63;;;13.90;96.70;;;;;;4974053;28;20046;-83
2022/03/10 11:49:08;;;;;;;16.33;12.65;;;14.00;96.70;;;;;;5010649;28;20053;-83
2022/03/10 11:51:48;;;;;;;15.55;11.75;;;14.20;96.70;;;;;;5007776;28;20677;-83
2022/03/10 11:54:18;;;;;;;17.80;12.27;;;14.30;96.70;;;;;;4989367;28;20038;-82
2022/03/10 11:57:06;;;;;;;12.63;9.38;;;14.50;96.70;;;;;;4990362;28;20046;-83
2022/03/10 11:59:46;;;;;;;11.18;8.57;;;14.70;96.70;;;;;;4988277;28;20199;-83
2022/03/10 12:02:45;;;;;;;17.60;10.88;;;14.60;93.90;;;;;;4970635;28;20060;-81
2022/03/10 12:05:16;;;;;;;13.30;10.60;;;14.60;96.70;;;;;;4990554;28;20512;-83
2022/03/10 12:07:50;;;;;;;13.88;9.73;;;14.80;96.70;;;;;;4994369;28;20500;-83
2022/03/10 12:10:18;;;;;;;13.32;10.10;;;15.00;96.70;;;;;;4988421;28;20050;-82
2022/03/10 12:12:49;;;;;;;13.68;10.05;;;15.10;95.50;;;;;;4980554;28;20042;-83
2022/03/10 12:15:49;;;;;;;13.88;10.55;;;15.20;94.80;;;;;;4988602;28;20129;-83
2022/03/10 12:18:25;;;;;;;12.00;9.90;;;15.30;95.40;;;;;;5002802;28;20074;-83
2022/03/10 12:20:56;;;;;;;15.60;10.23;;;15.00;96.70;;;;;;4977531;28;20093;-83
2022/03/10 12:23:26;;;;;;;14.88;11.70;;;15.00;96.70;;;;;;5004443;28;20046;-83
2022/03/10 12:25:59;;;;;;;15.02;11.40;;;15.20;96.70;;;;;;4972345;28;20068;-83
2022/03/10 12:28:32;;;;;;;14.63;11.15;;;15.40;96.70;;;;;;4994028;28;20516;-83
2022/03/10 12:31:07;;;;;;;15.05;10.75;;;15.60;96.70;;;;;;4974319;28;20042;-83
2022/03/10 12:33:45;;;;;;;11.30;9.15;;;15.60;96.70;;;;;;5022420;28;20078;-83
2022/03/10 12:36:22;;;;;;;12.40;10.18;;;15.70;96.10;;;;;;4974014;28;20050;-83
2022/03/10 12:38:50;;;;;;;14.93;10.13;;;15.90;96.00;;;;;;5017707;28;20069;-83
2022/03/10 12:41:19;;;;;;;13.68;9.50;;;16.10;95.20;;;;;;4996238;28;20046;-84
2022/03/10 12:43:54;;;;;;;14.40;10.13;;;16.20;94.30;;;;;;4995788;28;20732;-84
2022/03/10 12:46:24;;;;;;;12.15;9.80;;;16.20;93.90;;;;;;4994601;28;20106;-83
2022/03/10 12:49:02;;;;;;;12.02;9.10;;;16.20;93.60;;;;;;4994460;28;20046;-84
2022/03/10 12:51:33;;;;;;;12.27;9.30;;;16.30;92.30;;;;;;5012747;28;20114;-84
2022/03/10 12:54:02;;;;;;;10.48;7.95;;;16.50;92.20;;;;;;4994043;28;20492;-86
2022/03/10 12:56:46;;;;;;;11.15;8.68;;;16.50;91.70;;;;;;5003268;28;20050;-87
2022/03/10 12:59:25;;;;;;;13.88;9.07;;;16.40;91.20;;;;;;5006030;28;20437;-88